sensor_id;sensor_type;location;lat;lon;timestamp;pressure;altitude;pressure_sealevel;temperature
48854;BMP280;34673;52.808;17.856;2023-03-14T00:02:06;98302.06;;;10.46
48854;BMP280;34673;52.808;17.856;2023-03-14T00:04:34;98305.56;;;10.45
48854;BMP280;34673;52.808;17.856;2023-03-14T00:07:02;98299.53;;;10.45
48854;BMP280;34673;52.808;17.856;2023-03-14T00:09:29;98292.63;;;10.45
48854;BMP280;34673;52.808;17.856;2023-03-14T00:11:56;98293.66;;;10.41
48854;BMP280;34673;52.808;17.856;2023-03-14T00:14:24;98314.06;;;10.47
48854;BMP280;34673;52.808;17.856;2023-03-14T00:16:51;98300.13;;;10.51
48854;BMP280;34673;52.808;17.856;2023-03-14T00:19:18;98298.56;;;10.47
48854;BMP280;34673;52.808;17.856;2023-03-14T00:21:46;98314.72;;;10.52
48854;BMP280;34673;52.808;17.856;2023-03-14T00:24:13;98310.47;;;10.51
48854;BMP280;34673;52.808;17.856;2023-03-14T00:26:40;98319.03;;;10.53
48854;BMP280;34673;52.808;17.856;2023-03-14T00:29:07;98317.19;;;10.55
48854;BMP280;34673;52.808;17.856;2023-03-14T00:31:35;98315.34;;;10.59
48854;BMP280;34673;52.808;17.856;2023-03-14T00:34:03;98304.78;;;10.63
48854;BMP280;34673;52.808;17.856;2023-03-14T00:36:31;98307.38;;;10.63
48854;BMP280;34673;52.808;17.856;2023-03-14T00:38:58;98305.72;;;10.62
48854;BMP280;34673;52.808;17.856;2023-03-14T00:41:25;98310.09;;;10.60
48854;BMP280;34673;52.808;17.856;2023-03-14T00:43:53;98287.75;;;10.59
48854;BMP280;34673;52.808;17.856;2023-03-14T00:46:20;98303.91;;;10.64
48854;BMP280;34673;52.808;17.856;2023-03-14T00:48:47;98301.38;;;10.63
48854;BMP280;34673;52.808;17.856;2023-03-14T00:51:15;98290.38;;;10.58
48854;BMP280;34673;52.808;17.856;2023-03-14T00:53:43;98298.06;;;10.59
48854;BMP280;34673;52.808;17.856;2023-03-14T00:56:12;98287.03;;;10.56
48854;BMP280;34673;52.808;17.856;2023-03-14T00:58:40;98294.59;;;10.60
48854;BMP280;34673;52.808;17.856;2023-03-14T01:03:34;98279.72;;;10.65
48854;BMP280;34673;52.808;17.856;2023-03-14T01:06:09;98273.06;;;10.60
48854;BMP280;34673;52.808;17.856;2023-03-14T01:08:37;98269.56;;;10.61
48854;BMP280;34673;52.808;17.856;2023-03-14T01:11:06;98279.84;;;10.62
48854;BMP280;34673;52.808;17.856;2023-03-14T01:13:34;98267.88;;;10.60
48854;BMP280;34673;52.808;17.856;2023-03-14T01:16:03;98280.78;;;10.61
48854;BMP280;34673;52.808;17.856;2023-03-14T01:18:37;98282.44;;;10.62
48854;BMP280;34673;52.808;17.856;2023-03-14T01:21:11;98273.91;;;10.60
48854;BMP280;34673;52.808;17.856;2023-03-14T01:23:40;98270.28;;;10.64
48854;BMP280;34673;52.808;17.856;2023-03-14T01:26:12;98279.72;;;10.65
48854;BMP280;34673;52.808;17.856;2023-03-14T01:28:40;98272.78;;;10.66
48854;BMP280;34673;52.808;17.856;2023-03-14T01:31:09;98275.19;;;10.71
48854;BMP280;34673;52.808;17.856;2023-03-14T01:33:37;98261.50;;;10.69
48854;BMP280;34673;52.808;17.856;2023-03-14T01:36:05;98265.69;;;10.71
48854;BMP280;34673;52.808;17.856;2023-03-14T01:38:34;98258.78;;;10.72
48854;BMP280;34673;52.808;17.856;2023-03-14T01:41:02;98257.88;;;10.73
48854;BMP280;34673;52.808;17.856;2023-03-14T01:43:30;98257.88;;;10.73
48854;BMP280;34673;52.808;17.856;2023-03-14T01:48:42;98247.41;;;10.76
48854;BMP280;34673;52.808;17.856;2023-03-14T01:51:49;98242.22;;;10.76
48854;BMP280;34673;52.808;17.856;2023-03-14T01:54:16;98218.25;;;10.72
48854;BMP280;34673;52.808;17.856;2023-03-14T01:56:50;98202.66;;;10.74
48854;BMP280;34673;52.808;17.856;2023-03-14T01:59:19;98217.03;;;10.81
48854;BMP280;34673;52.808;17.856;2023-03-14T02:01:47;98190.50;;;10.76
48854;BMP280;34673;52.808;17.856;2023-03-14T02:04:17;98193.78;;;10.79
48854;BMP280;34673;52.808;17.856;2023-03-14T02:09:38;98168.13;;;10.75
48854;BMP280;34673;52.808;17.856;2023-03-14T02:12:10;98161.44;;;10.71
48854;BMP280;34673;52.808;17.856;2023-03-14T02:14:43;98153.94;;;10.64
48854;BMP280;34673;52.808;17.856;2023-03-14T02:17:43;98144.25;;;10.70
48854;BMP280;34673;52.808;17.856;2023-03-14T02:27:10;98174.13;;;10.56
48854;BMP280;34673;52.808;17.856;2023-03-14T02:30:05;98165.72;;;10.51
48854;BMP280;34673;52.808;17.856;2023-03-14T02:32:35;98174.75;;;10.41
48854;BMP280;34673;52.808;17.856;2023-03-14T02:35:11;98160.94;;;10.42
48854;BMP280;34673;52.808;17.856;2023-03-14T02:37:51;98145.41;;;10.42
48854;BMP280;34673;52.808;17.856;2023-03-14T02:40:21;98157.59;;;10.40
48854;BMP280;34673;52.808;17.856;2023-03-14T02:42:50;98162.75;;;10.40
48854;BMP280;34673;52.808;17.856;2023-03-14T02:48:01;98183.44;;;10.40
48854;BMP280;34673;52.808;17.856;2023-03-14T02:50:32;98182.56;;;10.39
48854;BMP280;34673;52.808;17.856;2023-03-14T02:53:01;98180.19;;;10.35
48854;BMP280;34673;52.808;17.856;2023-03-14T02:55:28;98188.84;;;10.34
48854;BMP280;34673;52.808;17.856;2023-03-14T02:57:58;98201.66;;;10.37
48854;BMP280;34673;52.808;17.856;2023-03-14T03:00:26;98193.91;;;10.37
48854;BMP280;34673;52.808;17.856;2023-03-14T03:02:53;98197.25;;;10.39
48854;BMP280;34673;52.808;17.856;2023-03-14T03:05:20;98218.75;;;10.39
48854;BMP280;34673;52.808;17.856;2023-03-14T03:07:47;98212.75;;;10.39
48854;BMP280;34673;52.808;17.856;2023-03-14T03:10:14;98199.06;;;10.37
48854;BMP280;34673;52.808;17.856;2023-03-14T03:12:41;98200.75;;;10.38
48854;BMP280;34673;52.808;17.856;2023-03-14T03:15:10;98192.06;;;10.39
48854;BMP280;34673;52.808;17.856;2023-03-14T03:17:37;98176.84;;;10.33
48854;BMP280;34673;52.808;17.856;2023-03-14T03:20:05;98180.19;;;10.35
48854;BMP280;34673;52.808;17.856;2023-03-14T03:22:38;98168.16;;;10.34
48854;BMP280;34673;52.808;17.856;2023-03-14T03:25:06;98173.47;;;10.31
48854;BMP280;34673;52.808;17.856;2023-03-14T03:27:35;98166.63;;;10.30
48854;BMP280;34673;52.808;17.856;2023-03-14T03:30:05;98165.91;;;10.26
48854;BMP280;34673;52.808;17.856;2023-03-14T03:32:34;98166.69;;;10.28
48854;BMP280;34673;52.808;17.856;2023-03-14T03:35:03;98172.78;;;10.26
48854;BMP280;34673;52.808;17.856;2023-03-14T03:37:32;98170.34;;;10.23
48854;BMP280;34673;52.808;17.856;2023-03-14T03:39:59;98180.78;;;10.19
48854;BMP280;34673;52.808;17.856;2023-03-14T03:42:27;98174.97;;;10.14
48854;BMP280;34673;52.808;17.856;2023-03-14T03:44:54;98174.97;;;10.14
48854;BMP280;34673;52.808;17.856;2023-03-14T03:47:22;98172.38;;;10.14
48854;BMP280;34673;52.808;17.856;2023-03-14T03:49:50;98163.84;;;10.12
48854;BMP280;34673;52.808;17.856;2023-03-14T03:52:17;98157.09;;;10.10
48854;BMP280;34673;52.808;17.856;2023-03-14T03:54:44;98155.34;;;10.10
48854;BMP280;34673;52.808;17.856;2023-03-14T03:57:13;98151.19;;;10.06
48854;BMP280;34673;52.808;17.856;2023-03-14T03:59:40;98150.41;;;10.04
48854;BMP280;34673;52.808;17.856;2023-03-14T04:02:07;98128.16;;;10.02
48854;BMP280;34673;52.808;17.856;2023-03-14T04:04:35;98109.50;;;9.95
48854;BMP280;34673;52.808;17.856;2023-03-14T04:07:04;98111.28;;;9.93
48854;BMP280;34673;52.808;17.856;2023-03-14T04:09:31;98099.78;;;9.80
48854;BMP280;34673;52.808;17.856;2023-03-14T04:12:09;98123.69;;;9.85
48854;BMP280;34673;52.808;17.856;2023-03-14T04:15:01;98123.81;;;9.82
48854;BMP280;34673;52.808;17.856;2023-03-14T04:17:29;98105.06;;;9.76
48854;BMP280;34673;52.808;17.856;2023-03-14T04:19:56;98114.56;;;9.76
48854;BMP280;34673;52.808;17.856;2023-03-14T04:22:31;98108.56;;;9.75
48854;BMP280;34673;52.808;17.856;2023-03-14T04:24:59;98100.88;;;9.74
48854;BMP280;34673;52.808;17.856;2023-03-14T04:27:26;98096.56;;;9.74
48854;BMP280;34673;52.808;17.856;2023-03-14T04:29:54;98081.00;;;9.76
48854;BMP280;34673;52.808;17.856;2023-03-14T04:32:39;98071.66;;;9.73
48854;BMP280;34673;52.808;17.856;2023-03-14T04:35:07;98075.19;;;9.71
48854;BMP280;34673;52.808;17.856;2023-03-14T04:37:34;98073.53;;;9.70
48854;BMP280;34673;52.808;17.856;2023-03-14T04:40:02;98069.31;;;9.67
48854;BMP280;34673;52.808;17.856;2023-03-14T04:42:33;98075.44;;;9.65
48854;BMP280;34673;52.808;17.856;2023-03-14T04:45:00;98072.09;;;9.63
48854;BMP280;34673;52.808;17.856;2023-03-14T04:47:30;98081.56;;;9.62
48854;BMP280;34673;52.808;17.856;2023-03-14T04:49:58;98087.00;;;9.56
48854;BMP280;34673;52.808;17.856;2023-03-14T04:52:25;98086.16;;;9.56
48854;BMP280;34673;52.808;17.856;2023-03-14T04:54:53;98074.97;;;9.55
48854;BMP280;34673;52.808;17.856;2023-03-14T04:57:22;98074.97;;;9.55
48854;BMP280;34673;52.808;17.856;2023-03-14T04:59:50;98054.56;;;9.49
48854;BMP280;34673;52.808;17.856;2023-03-14T05:02:50;98066.69;;;9.47
48854;BMP280;34673;52.808;17.856;2023-03-14T05:05:27;98082.31;;;9.44
48854;BMP280;34673;52.808;17.856;2023-03-14T05:08:06;98085.09;;;9.39
48854;BMP280;34673;52.808;17.856;2023-03-14T05:11:02;98085.81;;;9.43
48854;BMP280;34673;52.808;17.856;2023-03-14T05:13:39;98065.28;;;9.40
48854;BMP280;34673;52.808;17.856;2023-03-14T05:16:29;98073.78;;;9.42
48854;BMP280;34673;52.808;17.856;2023-03-14T05:19:16;98064.44;;;9.39
48854;BMP280;34673;52.808;17.856;2023-03-14T05:22:02;98056.09;;;9.32
48854;BMP280;34673;52.808;17.856;2023-03-14T05:24:48;98057.00;;;9.31
48854;BMP280;34673;52.808;17.856;2023-03-14T05:27:35;98051.06;;;9.29
48854;BMP280;34673;52.808;17.856;2023-03-14T05:30:14;98054.59;;;9.27
48854;BMP280;34673;52.808;17.856;2023-03-14T05:33:17;98065.06;;;9.24
48854;BMP280;34673;52.808;17.856;2023-03-14T05:36:02;98055.56;;;9.24
48854;BMP280;34673;52.808;17.856;2023-03-14T05:38:41;98048.75;;;9.23
48854;BMP280;34673;52.808;17.856;2023-03-14T05:41:31;98004.56;;;9.09
48854;BMP280;34673;52.808;17.856;2023-03-14T05:44:18;98057.22;;;9.25
48854;BMP280;34673;52.808;17.856;2023-03-14T05:47:04;98074.41;;;9.26
48854;BMP280;34673;52.808;17.856;2023-03-14T05:49:42;98065.88;;;9.24
48854;BMP280;34673;52.808;17.856;2023-03-14T05:52:32;98065.63;;;9.30
48854;BMP280;34673;52.808;17.856;2023-03-14T05:55:20;98077.53;;;9.35
48854;BMP280;34673;52.808;17.856;2023-03-14T05:58:07;98077.53;;;9.35
48854;BMP280;34673;52.808;17.856;2023-03-14T06:00:34;98075.81;;;9.33
48854;BMP280;34673;52.808;17.856;2023-03-14T06:03:15;98090.25;;;9.39
48854;BMP280;34673;52.808;17.856;2023-03-14T06:05:46;98091.84;;;9.42
48854;BMP280;34673;52.808;17.856;2023-03-14T06:08:13;98099.50;;;9.45
48854;BMP280;34673;52.808;17.856;2023-03-14T06:10:44;98082.19;;;9.47
48854;BMP280;34673;52.808;17.856;2023-03-14T06:13:12;98068.41;;;9.48
48854;BMP280;34673;52.808;17.856;2023-03-14T06:15:39;98049.81;;;9.40
48854;BMP280;34673;52.808;17.856;2023-03-14T06:18:06;98075.22;;;9.49
48854;BMP280;34673;52.808;17.856;2023-03-14T06:20:37;98084.59;;;9.51
48854;BMP280;34673;52.808;17.856;2023-03-14T06:23:10;98064.66;;;9.55
48854;BMP280;34673;52.808;17.856;2023-03-14T06:25:38;98057.81;;;9.54
48854;BMP280;34673;52.808;17.856;2023-03-14T06:28:05;98066.22;;;9.59
48854;BMP280;34673;52.808;17.856;2023-03-14T06:30:33;98052.41;;;9.60
48854;BMP280;34673;52.808;17.856;2023-03-14T06:33:00;98056.81;;;9.58
48854;BMP280;34673;52.808;17.856;2023-03-14T06:35:28;98071.25;;;9.62
48854;BMP280;34673;52.808;17.856;2023-03-14T06:37:55;98069.59;;;9.61
48854;BMP280;34673;52.808;17.856;2023-03-14T06:40:22;98081.41;;;9.67
48854;BMP280;34673;52.808;17.856;2023-03-14T06:42:54;98077.97;;;9.66
48854;BMP280;34673;52.808;17.856;2023-03-14T06:45:23;98080.56;;;9.66
48854;BMP280;34673;52.808;17.856;2023-03-14T06:47:51;98081.69;;;9.59
48854;BMP280;34673;52.808;17.856;2023-03-14T06:50:23;98093.47;;;9.66
48854;BMP280;34673;52.808;17.856;2023-03-14T06:52:50;98098.81;;;9.62
48854;BMP280;34673;52.808;17.856;2023-03-14T06:55:21;98096.94;;;9.65
48854;BMP280;34673;52.808;17.856;2023-03-14T06:57:49;98095.00;;;9.70
48854;BMP280;34673;52.808;17.856;2023-03-14T07:00:17;98100.13;;;9.72
48854;BMP280;34673;52.808;17.856;2023-03-14T07:02:44;98092.44;;;9.70
48854;BMP280;34673;52.808;17.856;2023-03-14T07:05:28;98093.09;;;9.75
48854;BMP280;34673;52.808;17.856;2023-03-14T07:07:55;98085.03;;;9.83
48854;BMP280;34673;52.808;17.856;2023-03-14T07:10:23;98071.78;;;9.91
48854;BMP280;34673;52.808;17.856;2023-03-14T07:12:50;98082.66;;;9.99
48854;BMP280;34673;52.808;17.856;2023-03-14T07:15:22;98085.09;;;10.02
48854;BMP280;34673;52.808;17.856;2023-03-14T07:17:54;98079.78;;;10.05
48854;BMP280;34673;52.808;17.856;2023-03-14T07:20:22;98094.06;;;10.14
48854;BMP280;34673;52.808;17.856;2023-03-14T07:22:50;98082.88;;;10.13
48854;BMP280;34673;52.808;17.856;2023-03-14T07:25:25;98101.63;;;10.18
48854;BMP280;34673;52.808;17.856;2023-03-14T07:27:53;98092.94;;;10.19
48854;BMP280;34673;52.808;17.856;2023-03-14T07:30:20;98075.66;;;10.21
48854;BMP280;34673;52.808;17.856;2023-03-14T07:32:48;98075.50;;;10.25
48854;BMP280;34673;52.808;17.856;2023-03-14T07:35:15;98088.38;;;10.26
48854;BMP280;34673;52.808;17.856;2023-03-14T07:37:42;98078.00;;;10.28
48854;BMP280;34673;52.808;17.856;2023-03-14T07:40:11;98087.44;;;10.29
48854;BMP280;34673;52.808;17.856;2023-03-14T07:42:42;98085.59;;;10.31
48854;BMP280;34673;52.808;17.856;2023-03-14T07:45:24;98080.44;;;10.31
48854;BMP280;34673;52.808;17.856;2023-03-14T07:47:54;98085.47;;;10.34
48854;BMP280;34673;52.808;17.856;2023-03-14T07:50:25;98070.84;;;10.34
48854;BMP280;34673;52.808;17.856;2023-03-14T07:52:53;98070.75;;;10.36
48854;BMP280;34673;52.808;17.856;2023-03-14T07:55:21;98054.47;;;10.34
48854;BMP280;34673;52.808;17.856;2023-03-14T07:57:48;98080.19;;;10.37
48854;BMP280;34673;52.808;17.856;2023-03-14T08:00:15;98074.88;;;10.40
48854;BMP280;34673;52.808;17.856;2023-03-14T08:02:44;98069.84;;;10.37
48854;BMP280;34673;52.808;17.856;2023-03-14T08:05:11;98067.03;;;10.41
48854;BMP280;34673;52.808;17.856;2023-03-14T08:07:38;98057.78;;;10.37
48854;BMP280;34673;52.808;17.856;2023-03-14T08:10:06;98066.06;;;10.44
48854;BMP280;34673;52.808;17.856;2023-03-14T08:12:34;98057.44;;;10.45
48854;BMP280;34673;52.808;17.856;2023-03-14T08:15:01;98053.94;;;10.46
48854;BMP280;34673;52.808;17.856;2023-03-14T08:17:29;98057.00;;;10.54
48854;BMP280;34673;52.808;17.856;2023-03-14T08:19:56;98065.53;;;10.56
48854;BMP280;34673;52.808;17.856;2023-03-14T08:22:23;98068.00;;;10.59
48854;BMP280;34673;52.808;17.856;2023-03-14T08:24:50;98067.06;;;10.60
48854;BMP280;34673;52.808;17.856;2023-03-14T08:27:17;98059.94;;;10.65
48854;BMP280;34673;52.808;17.856;2023-03-14T08:29:44;98066.53;;;10.73
48854;BMP280;34673;52.808;17.856;2023-03-14T08:32:11;98068.13;;;10.75
48854;BMP280;34673;52.808;17.856;2023-03-14T08:34:39;98074.91;;;10.78
48854;BMP280;34673;52.808;17.856;2023-03-14T08:37:07;98062.00;;;10.78
48854;BMP280;34673;52.808;17.856;2023-03-14T08:39:51;98074.78;;;10.81
48854;BMP280;34673;52.808;17.856;2023-03-14T08:42:18;98079.94;;;10.81
48854;BMP280;34673;52.808;17.856;2023-03-14T08:44:46;98078.75;;;10.88
48854;BMP280;34673;52.808;17.856;2023-03-14T08:47:13;98089.88;;;10.90
48854;BMP280;34673;52.808;17.856;2023-03-14T08:49:40;98098.19;;;10.97
48854;BMP280;34673;52.808;17.856;2023-03-14T08:52:08;98098.13;;;10.98
48854;BMP280;34673;52.808;17.856;2023-03-14T08:54:35;98100.34;;;11.06
48854;BMP280;34673;52.808;17.856;2023-03-14T08:57:02;98098.25;;;11.14
48854;BMP280;34673;52.808;17.856;2023-03-14T08:59:29;98089.97;;;11.25
48854;BMP280;34673;52.808;17.856;2023-03-14T09:01:56;98077.66;;;11.30
48854;BMP280;34673;52.808;17.856;2023-03-14T09:04:24;98093.72;;;11.37
48854;BMP280;34673;52.808;17.856;2023-03-14T09:06:51;98087.56;;;11.39
48854;BMP280;34673;52.808;17.856;2023-03-14T09:09:18;98082.41;;;11.39
48854;BMP280;34673;52.808;17.856;2023-03-14T09:11:45;98080.56;;;11.41
48854;BMP280;34673;52.808;17.856;2023-03-14T09:14:12;98086.44;;;11.45
48854;BMP280;34673;52.808;17.856;2023-03-14T09:16:40;98076.78;;;11.48
48854;BMP280;34673;52.808;17.856;2023-03-14T09:19:07;98078.31;;;11.52
48854;BMP280;34673;52.808;17.856;2023-03-14T09:21:35;98072.09;;;11.57
48854;BMP280;34673;52.808;17.856;2023-03-14T09:24:02;98080.53;;;11.60
48854;BMP280;34673;52.808;17.856;2023-03-14T09:26:29;98071.94;;;11.60
48854;BMP280;34673;52.808;17.856;2023-03-14T09:28:56;98074.38;;;11.63
48854;BMP280;34673;52.808;17.856;2023-03-14T09:31:24;98079.53;;;11.63
48854;BMP280;34673;52.808;17.856;2023-03-14T09:33:51;98069.97;;;11.65
48854;BMP280;34673;52.808;17.856;2023-03-14T09:36:19;98078.41;;;11.68
48854;BMP280;34673;52.808;17.856;2023-03-14T09:38:46;98084.72;;;11.80
48854;BMP280;34673;52.808;17.856;2023-03-14T09:41:33;98077.06;;;11.96
48854;BMP280;34673;52.808;17.856;2023-03-14T09:44:30;98066.16;;;12.07
48854;BMP280;34673;52.808;17.856;2023-03-14T09:47:00;98070.13;;;12.14
48854;BMP280;34673;52.808;17.856;2023-03-14T09:49:34;98060.97;;;12.24
48854;BMP280;34673;52.808;17.856;2023-03-14T09:52:25;98062.31;;;12.31
48854;BMP280;34673;52.808;17.856;2023-03-14T09:54:57;98060.47;;;12.33
48854;BMP280;34673;52.808;17.856;2023-03-14T09:57:27;98072.34;;;12.37
48854;BMP280;34673;52.808;17.856;2023-03-14T09:59:57;98059.53;;;12.34
48854;BMP280;34673;52.808;17.856;2023-03-14T10:02:34;98072.66;;;12.31
48854;BMP280;34673;52.808;17.856;2023-03-14T10:05:07;98063.28;;;12.29
48854;BMP280;34673;52.808;17.856;2023-03-14T10:07:40;98067.66;;;12.28
48854;BMP280;34673;52.808;17.856;2023-03-14T10:10:14;98074.66;;;12.26
48854;BMP280;34673;52.808;17.856;2023-03-14T10:12:45;98072.16;;;12.25
48854;BMP280;34673;52.808;17.856;2023-03-14T10:15:14;98070.41;;;12.25
48854;BMP280;34673;52.808;17.856;2023-03-14T10:17:48;98076.34;;;12.27
48854;BMP280;34673;52.808;17.856;2023-03-14T10:20:34;98077.84;;;12.31
48854;BMP280;34673;52.808;17.856;2023-03-14T10:25:43;98064.50;;;12.39
48854;BMP280;34673;52.808;17.856;2023-03-14T10:30:52;98073.94;;;12.40
48854;BMP280;34673;52.808;17.856;2023-03-14T10:33:20;98063.66;;;12.38
48854;BMP280;34673;52.808;17.856;2023-03-14T10:35:56;98062.31;;;12.31
48854;BMP280;34673;52.808;17.856;2023-03-14T10:38:27;98065.88;;;12.29
48854;BMP280;34673;52.808;17.856;2023-03-14T10:40:56;98065.97;;;12.27
48854;BMP280;34673;52.808;17.856;2023-03-14T10:45:59;98069.31;;;12.29
48854;BMP280;34673;52.808;17.856;2023-03-14T10:48:33;98065.22;;;12.25
48854;BMP280;34673;52.808;17.856;2023-03-14T10:53:49;98072.31;;;12.22
48854;BMP280;34673;52.808;17.856;2023-03-14T10:56:22;98069.97;;;12.17
48854;BMP280;34673;52.808;17.856;2023-03-14T10:58:54;98075.31;;;12.14
48854;BMP280;34673;52.808;17.856;2023-03-14T11:01:39;98064.50;;;12.06
48854;BMP280;34673;52.808;17.856;2023-03-14T11:07:15;98077.59;;;12.03
48854;BMP280;34673;52.808;17.856;2023-03-14T11:09:56;98088.81;;;12.03
48854;BMP280;34673;52.808;17.856;2023-03-14T11:15:04;98079.44;;;12.01
48854;BMP280;34673;52.808;17.856;2023-03-14T11:21:05;98090.25;;;12.09
48854;BMP280;34673;52.808;17.856;2023-03-14T11:23:46;98089.16;;;12.13
48854;BMP280;34673;52.808;17.856;2023-03-14T11:26:26;98085.56;;;12.15
48854;BMP280;34673;52.808;17.856;2023-03-14T11:29:17;98091.38;;;12.20
48854;BMP280;34673;52.808;17.856;2023-03-14T11:31:46;98090.22;;;12.26
48854;BMP280;34673;52.808;17.856;2023-03-14T11:34:25;98071.84;;;12.31
48854;BMP280;34673;52.808;17.856;2023-03-14T11:37:16;98082.59;;;12.40
48854;BMP280;34673;52.808;17.856;2023-03-14T11:39:59;98082.59;;;12.40
48854;BMP280;34673;52.808;17.856;2023-03-14T11:42:28;98086.06;;;12.39
48854;BMP280;34673;52.808;17.856;2023-03-14T11:44:58;98088.75;;;12.38
48854;BMP280;34673;52.808;17.856;2023-03-14T11:47:35;98087.00;;;12.38
48854;BMP280;34673;52.808;17.856;2023-03-14T11:52:52;98086.06;;;12.39
48854;BMP280;34673;52.808;17.856;2023-03-14T11:55:34;98088.59;;;12.41
48854;BMP280;34673;52.808;17.856;2023-03-14T11:58:25;98070.50;;;12.39
48854;BMP280;34673;52.808;17.856;2023-03-14T12:00:57;98061.69;;;12.44
48854;BMP280;34673;52.808;17.856;2023-03-14T12:03:57;98063.19;;;12.48
48854;BMP280;34673;52.808;17.856;2023-03-14T12:06:47;98060.34;;;12.52
48854;BMP280;34673;52.808;17.856;2023-03-14T12:09:17;98052.34;;;12.57
48854;BMP280;34673;52.808;17.856;2023-03-14T12:14:23;98069.91;;;12.68
48854;BMP280;34673;52.808;17.856;2023-03-14T12:16:56;98061.09;;;12.70
48854;BMP280;34673;52.808;17.856;2023-03-14T12:19:28;98056.69;;;12.72
48854;BMP280;34673;52.808;17.856;2023-03-14T12:24:28;98051.06;;;12.64
48854;BMP280;34673;52.808;17.856;2023-03-14T12:27:00;98054.59;;;12.63
48854;BMP280;34673;52.808;17.856;2023-03-14T12:29:28;98050.47;;;12.59
48854;BMP280;34673;52.808;17.856;2023-03-14T12:34:31;98040.28;;;12.72
48854;BMP280;34673;52.808;17.856;2023-03-14T12:40:13;98033.03;;;12.78
48854;BMP280;34673;52.808;17.856;2023-03-14T12:43:02;98032.94;;;12.96
48854;BMP280;34673;52.808;17.856;2023-03-14T12:45:32;98030.56;;;13.07
48854;BMP280;34673;52.808;17.856;2023-03-14T12:48:19;98038.44;;;13.05
48854;BMP280;34673;52.808;17.856;2023-03-14T12:50:56;98024.97;;;12.99
48854;BMP280;34673;52.808;17.856;2023-03-14T12:53:38;98029.56;;;12.94
48854;BMP280;34673;52.808;17.856;2023-03-14T13:02:17;98023.91;;;12.71
48854;BMP280;34673;52.808;17.856;2023-03-14T13:05:09;98031.25;;;12.63
48854;BMP280;34673;52.808;17.856;2023-03-14T13:10:18;98030.50;;;12.61
48854;BMP280;34673;52.808;17.856;2023-03-14T13:12:56;98017.34;;;12.64
48854;BMP280;34673;52.808;17.856;2023-03-14T13:15:25;98016.88;;;12.73
48854;BMP280;34673;52.808;17.856;2023-03-14T13:17:56;98018.97;;;12.82
48854;BMP280;34673;52.808;17.856;2023-03-14T13:20:30;98009.00;;;12.91
48854;BMP280;34673;52.808;17.856;2023-03-14T13:22:57;98005.31;;;12.95
48854;BMP280;34673;52.808;17.856;2023-03-14T13:25:30;98012.25;;;12.94
48854;BMP280;34673;52.808;17.856;2023-03-14T13:28:00;98016.94;;;12.88
48854;BMP280;34673;52.808;17.856;2023-03-14T13:30:35;98035.44;;;12.81
48854;BMP280;34673;52.808;17.856;2023-03-14T13:33:04;98028.91;;;12.74
48854;BMP280;34673;52.808;17.856;2023-03-14T13:35:44;98027.72;;;12.64
48854;BMP280;34673;52.808;17.856;2023-03-14T13:38:31;98028.41;;;12.52
48854;BMP280;34673;52.808;17.856;2023-03-14T13:41:00;98028.47;;;12.50
48854;BMP280;34673;52.808;17.856;2023-03-14T13:43:32;98021.84;;;12.45
48854;BMP280;34673;52.808;17.856;2023-03-14T13:46:14;98020.34;;;12.40
48854;BMP280;34673;52.808;17.856;2023-03-14T13:48:46;98022.94;;;12.40
48854;BMP280;34673;52.808;17.856;2023-03-14T13:51:16;98015.06;;;12.42
48854;BMP280;34673;52.808;17.856;2023-03-14T13:53:49;98011.31;;;12.48
48854;BMP280;34673;52.808;17.856;2023-03-14T13:56:26;98007.31;;;12.58
48854;BMP280;34673;52.808;17.856;2023-03-14T13:58:54;98018.72;;;12.71
48854;BMP280;34673;52.808;17.856;2023-03-14T14:01:33;98013.34;;;12.74
48854;BMP280;34673;52.808;17.856;2023-03-14T14:04:14;98017.72;;;12.74
48854;BMP280;34673;52.808;17.856;2023-03-14T14:06:57;98013.34;;;12.74
48854;BMP280;34673;52.808;17.856;2023-03-14T14:09:27;98016.94;;;12.72
48854;BMP280;34673;52.808;17.856;2023-03-14T14:17:16;98014.28;;;12.73
48854;BMP280;34673;52.808;17.856;2023-03-14T14:19:46;98010.81;;;12.73
48854;BMP280;34673;52.808;17.856;2023-03-14T14:22:14;98016.69;;;12.76
48854;BMP280;34673;52.808;17.856;2023-03-14T14:24:41;98012.34;;;12.77
48854;BMP280;34673;52.808;17.856;2023-03-14T14:27:24;98007.22;;;12.75
48854;BMP280;34673;52.808;17.856;2023-03-14T14:29:59;98008.34;;;12.71
48854;BMP280;34673;52.808;17.856;2023-03-14T14:32:38;98016.69;;;12.76
48854;BMP280;34673;52.808;17.856;2023-03-14T14:35:08;98016.88;;;12.73
48854;BMP280;34673;52.808;17.856;2023-03-14T14:37:44;98009.69;;;12.78
48854;BMP280;34673;52.808;17.856;2023-03-14T14:40:19;98006.81;;;12.83
48854;BMP280;34673;52.808;17.856;2023-03-14T14:42:47;97997.25;;;12.83
48854;BMP280;34673;52.808;17.856;2023-03-14T14:45:23;98005.63;;;12.89
48854;BMP280;34673;52.808;17.856;2023-03-14T14:50:33;97997.59;;;12.93
48854;BMP280;34673;52.808;17.856;2023-03-14T14:53:03;97989.75;;;12.95
48854;BMP280;34673;52.808;17.856;2023-03-14T14:55:38;98000.88;;;12.97
48854;BMP280;34673;52.808;17.856;2023-03-14T14:58:29;98000.28;;;12.92
48854;BMP280;34673;52.808;17.856;2023-03-14T15:01:03;98002.78;;;12.93
48854;BMP280;34673;52.808;17.856;2023-03-14T15:03:33;98001.78;;;12.96
48854;BMP280;34673;52.808;17.856;2023-03-14T15:06:02;97994.94;;;12.95
48854;BMP280;34673;52.808;17.856;2023-03-14T15:08:30;98006.06;;;12.97
48854;BMP280;34673;52.808;17.856;2023-03-14T15:10:57;98006.41;;;12.91
48854;BMP280;34673;52.808;17.856;2023-03-14T15:13:25;98003.97;;;12.88
48854;BMP280;34673;52.808;17.856;2023-03-14T15:15:52;98010.16;;;12.85
48854;BMP280;34673;52.808;17.856;2023-03-14T15:18:28;98018.03;;;12.83
48854;BMP280;34673;52.808;17.856;2023-03-14T15:20:57;98011.34;;;12.79
48854;BMP280;34673;52.808;17.856;2023-03-14T15:23:24;98015.69;;;12.79
48854;BMP280;34673;52.808;17.856;2023-03-14T15:25:51;97996.25;;;12.70
48854;BMP280;34673;52.808;17.856;2023-03-14T15:28:26;98008.50;;;12.68
48854;BMP280;34673;52.808;17.856;2023-03-14T15:30:56;98003.63;;;12.62
48854;BMP280;34673;52.808;17.856;2023-03-14T15:33:25;98004.91;;;12.55
48854;BMP280;34673;52.808;17.856;2023-03-14T15:35:53;98000.94;;;12.48